sensor_id;sensor_type;location;lat;lon;timestamp;P1;durP1;ratioP1;P2;durP2;ratioP2
58992;SDS011;44782;0.000;0.000;2022-08-11T00:01:14;2.10;;;2.00;;
58992;SDS011;44782;0.000;0.000;2022-08-11T00:03:33;2.00;;;1.90;;
58992;SDS011;44782;0.000;0.000;2022-08-11T00:05:51;2.05;;;1.95;;
58992;SDS011;44782;0.000;0.000;2022-08-11T00:08:09;2.72;;;2.17;;
58992;SDS011;44782;0.000;0.000;2022-08-11T00:10:33;2.20;;;2.10;;
58992;SDS011;44782;0.000;0.000;2022-08-11T00:12:52;2.25;;;2.15;;
58992;SDS011;44782;0.000;0.000;2022-08-11T00:15:12;2.22;;;2.10;;
58992;SDS011;44782;0.000;0.000;2022-08-11T00:17:29;1.83;;;1.73;;
58992;SDS011;44782;0.000;0.000;2022-08-11T00:19:47;2.00;;;1.90;;
58992;SDS011;44782;0.000;0.000;2022-08-11T00:22:04;2.03;;;1.92;;
58992;SDS011;44782;0.000;0.000;2022-08-11T00:24:21;4.05;;;2.00;;
58992;SDS011;44782;0.000;0.000;2022-08-11T00:26:38;2.10;;;2.00;;
58992;SDS011;44782;0.000;0.000;2022-08-11T00:28:55;2.00;;;1.90;;
58992;SDS011;44782;0.000;0.000;2022-08-11T00:31:19;2.20;;;2.05;;
58992;SDS011;44782;0.000;0.000;2022-08-11T00:33:43;2.03;;;1.83;;
58992;SDS011;44782;0.000;0.000;2022-08-11T00:35:59;2.30;;;2.20;;
58992;SDS011;44782;0.000;0.000;2022-08-11T00:38:22;1.95;;;1.85;;
58992;SDS011;44782;0.000;0.000;2022-08-11T00:41:27;2.08;;;1.98;;
58992;SDS011;44782;0.000;0.000;2022-08-11T00:43:34;2.10;;;1.90;;
58992;SDS011;44782;0.000;0.000;2022-08-11T00:46:15;1.83;;;1.73;;
58992;SDS011;44782;0.000;0.000;2022-08-11T00:48:47;2.40;;;2.20;;
58992;SDS011;44782;0.000;0.000;2022-08-11T01:08:06;1.95;;;1.85;;
58992;SDS011;44782;0.000;0.000;2022-08-11T01:18:58;2.38;;;2.08;;
58992;SDS011;44782;0.000;0.000;2022-08-11T01:42:48;1.92;;;1.83;;
58992;SDS011;44782;0.000;0.000;2022-08-11T01:48:04;2.10;;;2.00;;
58992;SDS011;44782;0.000;0.000;2022-08-11T01:53:02;2.00;;;1.80;;
58992;SDS011;44782;0.000;0.000;2022-08-11T01:55:27;2.38;;;2.17;;
58992;SDS011;44782;0.000;0.000;2022-08-11T02:00:47;2.38;;;2.28;;
58992;SDS011;44782;0.000;0.000;2022-08-11T02:03:28;2.00;;;1.90;;
58992;SDS011;44782;0.000;0.000;2022-08-11T02:16:54;1.92;;;1.83;;
58992;SDS011;44782;0.000;0.000;2022-08-11T02:22:24;2.15;;;2.05;;
58992;SDS011;44782;0.000;0.000;2022-08-11T02:28:04;2.60;;;2.10;;
58992;SDS011;44782;0.000;0.000;2022-08-11T02:30:28;2.00;;;1.90;;
58992;SDS011;44782;0.000;0.000;2022-08-11T02:40:52;2.03;;;1.90;;
58992;SDS011;44782;0.000;0.000;2022-08-11T02:43:49;2.00;;;1.90;;
58992;SDS011;44782;0.000;0.000;2022-08-11T02:46:20;2.10;;;2.00;;
58992;SDS011;44782;0.000;0.000;2022-08-11T02:57:28;2.53;;;2.33;;
58992;SDS011;44782;0.000;0.000;2022-08-11T03:02:23;2.50;;;2.30;;
58992;SDS011;44782;0.000;0.000;2022-08-11T03:07:47;2.40;;;2.20;;
58992;SDS011;44782;0.000;0.000;2022-08-11T03:10:25;2.10;;;2.00;;
58992;SDS011;44782;0.000;0.000;2022-08-11T03:15:57;2.22;;;1.92;;
58992;SDS011;44782;0.000;0.000;2022-08-11T03:24:38;2.20;;;2.10;;
58992;SDS011;44782;0.000;0.000;2022-08-11T03:27:08;2.00;;;1.90;;
58992;SDS011;44782;0.000;0.000;2022-08-11T03:32:27;2.10;;;2.00;;
58992;SDS011;44782;0.000;0.000;2022-08-11T03:35:24;2.30;;;2.20;;
58992;SDS011;44782;0.000;0.000;2022-08-11T03:37:50;2.30;;;2.20;;
58992;SDS011;44782;0.000;0.000;2022-08-11T03:43:18;2.45;;;2.25;;
58992;SDS011;44782;0.000;0.000;2022-08-11T03:48:37;2.20;;;2.10;;
58992;SDS011;44782;0.000;0.000;2022-08-11T03:51:17;2.20;;;2.08;;
58992;SDS011;44782;0.000;0.000;2022-08-11T03:56:24;2.38;;;2.28;;
58992;SDS011;44782;0.000;0.000;2022-08-11T04:07:18;2.35;;;2.25;;
58992;SDS011;44782;0.000;0.000;2022-08-11T04:12:52;2.38;;;2.28;;
58992;SDS011;44782;0.000;0.000;2022-08-11T04:56:46;2.22;;;2.03;;
58992;SDS011;44782;0.000;0.000;2022-08-11T05:14:56;2.80;;;2.60;;
58992;SDS011;44782;0.000;0.000;2022-08-11T05:18:19;3.42;;;2.63;;
58992;SDS011;44782;0.000;0.000;2022-08-11T05:20:33;4.47;;;2.53;;
58992;SDS011;44782;0.000;0.000;2022-08-11T05:23:18;2.80;;;2.60;;
58992;SDS011;44782;0.000;0.000;2022-08-11T05:25:58;2.97;;;2.78;;
58992;SDS011;44782;0.000;0.000;2022-08-11T05:28:35;2.78;;;2.58;;
58992;SDS011;44782;0.000;0.000;2022-08-11T05:31:15;2.58;;;2.38;;
58992;SDS011;44782;0.000;0.000;2022-08-11T05:33:56;3.10;;;2.80;;
58992;SDS011;44782;0.000;0.000;2022-08-11T05:36:39;4.05;;;2.53;;
58992;SDS011;44782;0.000;0.000;2022-08-11T05:39:04;4.03;;;2.47;;
58992;SDS011;44782;0.000;0.000;2022-08-11T05:41:56;2.85;;;2.63;;
58992;SDS011;44782;0.000;0.000;2022-08-11T05:44:31;2.75;;;2.50;;
58992;SDS011;44782;0.000;0.000;2022-08-11T05:47:08;2.90;;;2.70;;
58992;SDS011;44782;0.000;0.000;2022-08-11T05:49:47;2.97;;;2.53;;
58992;SDS011;44782;0.000;0.000;2022-08-11T05:52:25;3.00;;;2.80;;
58992;SDS011;44782;0.000;0.000;2022-08-11T05:55:03;2.83;;;2.63;;
58992;SDS011;44782;0.000;0.000;2022-08-11T05:57:38;4.28;;;2.50;;
58992;SDS011;44782;0.000;0.000;2022-08-11T05:59:58;2.88;;;2.67;;
58992;SDS011;44782;0.000;0.000;2022-08-11T06:02:16;2.92;;;2.63;;
58992;SDS011;44782;0.000;0.000;2022-08-11T06:04:32;2.80;;;2.30;;
58992;SDS011;44782;0.000;0.000;2022-08-11T06:06:58;3.25;;;2.95;;
58992;SDS011;44782;0.000;0.000;2022-08-11T06:11:50;3.13;;;2.90;;
58992;SDS011;44782;0.000;0.000;2022-08-11T06:14:07;2.90;;;2.60;;
58992;SDS011;44782;0.000;0.000;2022-08-11T06:16:24;3.20;;;2.90;;
58992;SDS011;44782;0.000;0.000;2022-08-11T06:18:45;3.03;;;2.63;;
58992;SDS011;44782;0.000;0.000;2022-08-11T06:21:07;3.78;;;2.65;;
58992;SDS011;44782;0.000;0.000;2022-08-11T06:23:29;2.70;;;2.50;;
58992;SDS011;44782;0.000;0.000;2022-08-11T06:25:46;3.17;;;2.88;;
58992;SDS011;44782;0.000;0.000;2022-08-11T06:28:04;2.83;;;2.60;;
58992;SDS011;44782;0.000;0.000;2022-08-11T06:30:31;2.80;;;2.60;;
58992;SDS011;44782;0.000;0.000;2022-08-11T06:32:53;2.88;;;2.55;;
58992;SDS011;44782;0.000;0.000;2022-08-11T06:47:54;3.10;;;2.90;;
58992;SDS011;44782;0.000;0.000;2022-08-11T06:50:15;2.63;;;2.42;;
58992;SDS011;44782;0.000;0.000;2022-08-11T06:52:54;2.50;;;2.38;;
58992;SDS011;44782;0.000;0.000;2022-08-11T06:55:11;2.80;;;2.60;;
58992;SDS011;44782;0.000;0.000;2022-08-11T06:57:48;2.42;;;2.22;;
58992;SDS011;44782;0.000;0.000;2022-08-11T07:00:23;2.70;;;2.50;;
58992;SDS011;44782;0.000;0.000;2022-08-11T07:02:48;2.60;;;2.45;;
58992;SDS011;44782;0.000;0.000;2022-08-11T07:05:14;3.35;;;2.42;;
58992;SDS011;44782;0.000;0.000;2022-08-11T07:07:51;2.45;;;2.25;;
58992;SDS011;44782;0.000;0.000;2022-08-11T07:14:22;3.00;;;2.80;;
58992;SDS011;44782;0.000;0.000;2022-08-11T07:16:59;2.70;;;2.50;;
58992;SDS011;44782;0.000;0.000;2022-08-11T07:19:16;2.90;;;2.70;;
58992;SDS011;44782;0.000;0.000;2022-08-11T07:21:56;2.63;;;2.53;;
58992;SDS011;44782;0.000;0.000;2022-08-11T07:24:37;2.65;;;2.45;;
58992;SDS011;44782;0.000;0.000;2022-08-11T07:27:41;2.65;;;2.45;;
58992;SDS011;44782;0.000;0.000;2022-08-11T07:30:18;2.80;;;2.60;;
58992;SDS011;44782;0.000;0.000;2022-08-11T07:32:50;2.80;;;2.60;;
58992;SDS011;44782;0.000;0.000;2022-08-11T07:35:12;2.67;;;2.58;;
58992;SDS011;44782;0.000;0.000;2022-08-11T07:37:34;2.88;;;2.60;;
58992;SDS011;44782;0.000;0.000;2022-08-11T07:39:50;2.88;;;2.60;;
58992;SDS011;44782;0.000;0.000;2022-08-11T07:42:08;2.40;;;2.30;;
58992;SDS011;44782;0.000;0.000;2022-08-11T07:44:27;2.65;;;2.45;;
58992;SDS011;44782;0.000;0.000;2022-08-11T07:46:45;2.70;;;2.50;;
58992;SDS011;44782;0.000;0.000;2022-08-11T07:49:21;2.60;;;2.40;;
58992;SDS011;44782;0.000;0.000;2022-08-11T07:51:55;2.60;;;2.40;;
58992;SDS011;44782;0.000;0.000;2022-08-11T07:54:30;3.03;;;2.72;;
58992;SDS011;44782;0.000;0.000;2022-08-11T07:56:46;2.78;;;2.58;;
58992;SDS011;44782;0.000;0.000;2022-08-11T07:59:03;2.67;;;2.45;;
58992;SDS011;44782;0.000;0.000;2022-08-11T08:01:38;2.38;;;2.28;;
58992;SDS011;44782;0.000;0.000;2022-08-11T08:04:16;2.55;;;2.35;;
58992;SDS011;44782;0.000;0.000;2022-08-11T08:06:51;2.58;;;2.38;;
58992;SDS011;44782;0.000;0.000;2022-08-11T08:09:26;2.78;;;2.58;;
58992;SDS011;44782;0.000;0.000;2022-08-11T08:12:02;2.70;;;2.50;;
58992;SDS011;44782;0.000;0.000;2022-08-11T08:14:38;2.63;;;2.40;;
58992;SDS011;44782;0.000;0.000;2022-08-11T08:17:12;2.80;;;2.60;;
58992;SDS011;44782;0.000;0.000;2022-08-11T08:19:47;2.72;;;2.53;;
58992;SDS011;44782;0.000;0.000;2022-08-11T08:22:04;2.63;;;2.42;;
58992;SDS011;44782;0.000;0.000;2022-08-11T08:24:20;2.88;;;2.67;;
58992;SDS011;44782;0.000;0.000;2022-08-11T08:26:36;2.50;;;2.40;;
58992;SDS011;44782;0.000;0.000;2022-08-11T08:29:10;2.90;;;2.55;;
58992;SDS011;44782;0.000;0.000;2022-08-11T08:31:45;2.80;;;2.60;;
58992;SDS011;44782;0.000;0.000;2022-08-11T08:34:02;2.67;;;2.47;;
58992;SDS011;44782;0.000;0.000;2022-08-11T08:36:18;2.40;;;2.25;;
58992;SDS011;44782;0.000;0.000;2022-08-11T08:40:56;2.83;;;2.42;;
58992;SDS011;44782;0.000;0.000;2022-08-11T08:43:14;2.60;;;2.35;;
58992;SDS011;44782;0.000;0.000;2022-08-11T08:45:33;2.80;;;2.60;;
58992;SDS011;44782;0.000;0.000;2022-08-11T08:48:00;2.55;;;2.35;;
58992;SDS011;44782;0.000;0.000;2022-08-11T08:50:25;2.60;;;2.40;;
58992;SDS011;44782;0.000;0.000;2022-08-11T08:53:04;2.85;;;2.60;;
58992;SDS011;44782;0.000;0.000;2022-08-11T08:55:22;2.60;;;2.40;;
58992;SDS011;44782;0.000;0.000;2022-08-11T08:57:41;2.80;;;2.60;;
58992;SDS011;44782;0.000;0.000;2022-08-11T08:59:59;2.85;;;2.25;;
58992;SDS011;44782;0.000;0.000;2022-08-11T09:02:17;2.67;;;2.47;;
58992;SDS011;44782;0.000;0.000;2022-08-11T09:04:39;2.58;;;2.38;;
58992;SDS011;44782;0.000;0.000;2022-08-11T09:06:58;2.63;;;2.42;;
58992;SDS011;44782;0.000;0.000;2022-08-11T09:09:20;3.40;;;2.58;;
58992;SDS011;44782;0.000;0.000;2022-08-11T09:11:38;2.95;;;2.50;;
58992;SDS011;44782;0.000;0.000;2022-08-11T09:14:07;2.60;;;2.40;;
58992;SDS011;44782;0.000;0.000;2022-08-11T09:16:23;2.50;;;2.30;;
58992;SDS011;44782;0.000;0.000;2022-08-11T09:18:40;3.38;;;2.60;;
58992;SDS011;44782;0.000;0.000;2022-08-11T09:20:58;2.70;;;2.50;;
58992;SDS011;44782;0.000;0.000;2022-08-11T09:23:17;3.45;;;2.60;;
58992;SDS011;44782;0.000;0.000;2022-08-11T09:25:52;2.53;;;2.33;;
58992;SDS011;44782;0.000;0.000;2022-08-11T09:28:29;2.75;;;2.55;;
58992;SDS011;44782;0.000;0.000;2022-08-11T09:30:46;2.22;;;2.13;;
58992;SDS011;44782;0.000;0.000;2022-08-11T09:33:11;2.63;;;2.42;;
58992;SDS011;44782;0.000;0.000;2022-08-11T09:35:30;4.03;;;2.35;;
58992;SDS011;44782;0.000;0.000;2022-08-11T09:37:50;3.15;;;2.50;;
58992;SDS011;44782;0.000;0.000;2022-08-11T09:40:26;2.63;;;2.42;;
58992;SDS011;44782;0.000;0.000;2022-08-11T09:42:45;2.67;;;2.47;;
58992;SDS011;44782;0.000;0.000;2022-08-11T09:45:20;2.78;;;2.55;;
58992;SDS011;44782;0.000;0.000;2022-08-11T09:47:36;2.42;;;2.22;;
58992;SDS011;44782;0.000;0.000;2022-08-11T09:50:00;2.47;;;2.28;;
58992;SDS011;44782;0.000;0.000;2022-08-11T09:52:16;2.35;;;2.25;;
58992;SDS011;44782;0.000;0.000;2022-08-11T09:54:32;2.80;;;2.60;;
58992;SDS011;44782;0.000;0.000;2022-08-11T09:56:50;2.85;;;2.40;;
58992;SDS011;44782;0.000;0.000;2022-08-11T09:59:26;3.25;;;2.17;;
58992;SDS011;44782;0.000;0.000;2022-08-11T10:01:43;2.78;;;2.40;;
58992;SDS011;44782;0.000;0.000;2022-08-11T10:04:07;2.30;;;2.20;;
58992;SDS011;44782;0.000;0.000;2022-08-11T10:06:31;2.50;;;2.20;;
58992;SDS011;44782;0.000;0.000;2022-08-11T10:09:09;2.97;;;2.22;;
58992;SDS011;44782;0.000;0.000;2022-08-11T10:11:28;2.92;;;2.40;;
58992;SDS011;44782;0.000;0.000;2022-08-11T10:13:44;2.67;;;2.33;;
58992;SDS011;44782;0.000;0.000;2022-08-11T10:16:25;2.45;;;2.25;;
58992;SDS011;44782;0.000;0.000;2022-08-11T10:18:43;2.50;;;2.30;;
58992;SDS011;44782;0.000;0.000;2022-08-11T10:21:08;2.38;;;1.88;;
58992;SDS011;44782;0.000;0.000;2022-08-11T10:23:44;2.65;;;2.20;;
58992;SDS011;44782;0.000;0.000;2022-08-11T10:26:19;2.53;;;2.33;;
58992;SDS011;44782;0.000;0.000;2022-08-11T10:28:55;2.30;;;2.10;;
58992;SDS011;44782;0.000;0.000;2022-08-11T10:31:11;2.13;;;2.03;;
58992;SDS011;44782;0.000;0.000;2022-08-11T10:33:46;2.75;;;2.20;;
58992;SDS011;44782;0.000;0.000;2022-08-11T10:36:17;2.17;;;2.00;;
58992;SDS011;44782;0.000;0.000;2022-08-11T10:38:35;2.28;;;2.08;;
58992;SDS011;44782;0.000;0.000;2022-08-11T10:40:51;3.90;;;2.20;;
58992;SDS011;44782;0.000;0.000;2022-08-11T10:43:28;2.20;;;2.00;;
58992;SDS011;44782;0.000;0.000;2022-08-11T10:45:44;2.40;;;1.90;;
58992;SDS011;44782;0.000;0.000;2022-08-11T10:48:24;2.22;;;2.08;;
58992;SDS011;44782;0.000;0.000;2022-08-11T10:50:45;2.47;;;2.15;;
58992;SDS011;44782;0.000;0.000;2022-08-11T10:53:20;2.35;;;2.13;;
58992;SDS011;44782;0.000;0.000;2022-08-11T10:55:56;2.05;;;1.95;;
58992;SDS011;44782;0.000;0.000;2022-08-11T10:58:32;2.17;;;1.95;;
58992;SDS011;44782;0.000;0.000;2022-08-11T11:00:59;2.78;;;2.13;;
58992;SDS011;44782;0.000;0.000;2022-08-11T11:03:16;2.10;;;1.90;;
58992;SDS011;44782;0.000;0.000;2022-08-11T11:05:32;2.42;;;2.22;;
58992;SDS011;44782;0.000;0.000;2022-08-11T11:10:14;2.30;;;2.10;;
58992;SDS011;44782;0.000;0.000;2022-08-11T11:12:32;2.20;;;2.00;;
58992;SDS011;44782;0.000;0.000;2022-08-11T11:15:17;2.78;;;1.80;;
58992;SDS011;44782;0.000;0.000;2022-08-11T11:18:07;2.38;;;2.10;;
58992;SDS011;44782;0.000;0.000;2022-08-11T11:20:32;2.55;;;2.00;;
58992;SDS011;44782;0.000;0.000;2022-08-11T11:22:56;2.05;;;1.92;;
58992;SDS011;44782;0.000;0.000;2022-08-11T11:30:18;5.40;;;2.13;;
58992;SDS011;44782;0.000;0.000;2022-08-11T11:37:58;2.78;;;1.73;;
58992;SDS011;44782;0.000;0.000;2022-08-11T11:40:16;5.10;;;2.05;;
58992;SDS011;44782;0.000;0.000;2022-08-11T11:42:40;4.50;;;2.30;;
58992;SDS011;44782;0.000;0.000;2022-08-11T11:44:58;4.72;;;2.00;;
58992;SDS011;44782;0.000;0.000;2022-08-11T11:47:14;2.33;;;2.13;;
58992;SDS011;44782;0.000;0.000;2022-08-11T11:49:34;3.17;;;1.90;;
58992;SDS011;44782;0.000;0.000;2022-08-11T11:51:54;3.45;;;1.98;;
58992;SDS011;44782;0.000;0.000;2022-08-11T11:54:13;2.35;;;2.15;;
58992;SDS011;44782;0.000;0.000;2022-08-11T11:56:30;3.38;;;1.90;;
58992;SDS011;44782;0.000;0.000;2022-08-11T11:58:46;3.20;;;2.10;;
58992;SDS011;44782;0.000;0.000;2022-08-11T12:01:21;2.45;;;1.92;;
58992;SDS011;44782;0.000;0.000;2022-08-11T12:03:39;2.00;;;1.88;;
58992;SDS011;44782;0.000;0.000;2022-08-11T12:05:57;2.60;;;2.17;;
58992;SDS011;44782;0.000;0.000;2022-08-11T12:08:13;2.97;;;2.08;;
58992;SDS011;44782;0.000;0.000;2022-08-11T12:10:33;2.38;;;2.03;;
58992;SDS011;44782;0.000;0.000;2022-08-11T12:12:49;2.40;;;2.20;;
58992;SDS011;44782;0.000;0.000;2022-08-11T12:15:24;2.30;;;2.10;;
58992;SDS011;44782;0.000;0.000;2022-08-11T12:17:40;2.92;;;2.05;;
58992;SDS011;44782;0.000;0.000;2022-08-11T12:19:56;4.00;;;1.95;;
58992;SDS011;44782;0.000;0.000;2022-08-11T12:22:12;3.78;;;2.00;;
58992;SDS011;44782;0.000;0.000;2022-08-11T12:24:47;2.10;;;2.00;;
58992;SDS011;44782;0.000;0.000;2022-08-11T12:27:22;2.30;;;2.10;;
58992;SDS011;44782;0.000;0.000;2022-08-11T12:29:40;3.90;;;2.03;;
58992;SDS011;44782;0.000;0.000;2022-08-11T12:31:59;3.60;;;2.10;;
58992;SDS011;44782;0.000;0.000;2022-08-11T12:34:15;2.35;;;1.95;;
58992;SDS011;44782;0.000;0.000;2022-08-11T12:36:36;2.67;;;2.25;;
58992;SDS011;44782;0.000;0.000;2022-08-11T12:38:53;3.10;;;2.10;;
58992;SDS011;44782;0.000;0.000;2022-08-11T12:41:09;2.22;;;2.03;;
58992;SDS011;44782;0.000;0.000;2022-08-11T12:43:44;3.00;;;2.05;;
58992;SDS011;44782;0.000;0.000;2022-08-11T12:46:22;2.15;;;1.90;;
58992;SDS011;44782;0.000;0.000;2022-08-11T12:48:49;3.17;;;2.00;;
58992;SDS011;44782;0.000;0.000;2022-08-11T12:51:34;3.92;;;2.08;;
58992;SDS011;44782;0.000;0.000;2022-08-11T12:54:16;2.20;;;2.00;;
58992;SDS011;44782;0.000;0.000;2022-08-11T12:56:42;2.30;;;2.10;;
58992;SDS011;44782;0.000;0.000;2022-08-11T12:59:18;2.17;;;1.98;;
58992;SDS011;44782;0.000;0.000;2022-08-11T13:01:54;1.92;;;1.83;;
58992;SDS011;44782;0.000;0.000;2022-08-11T13:04:28;2.00;;;1.90;;
58992;SDS011;44782;0.000;0.000;2022-08-11T13:07:03;2.22;;;2.13;;
58992;SDS011;44782;0.000;0.000;2022-08-11T13:09:20;2.10;;;2.00;;
58992;SDS011;44782;0.000;0.000;2022-08-11T13:11:35;2.00;;;1.90;;
58992;SDS011;44782;0.000;0.000;2022-08-11T13:14:12;2.00;;;1.80;;
58992;SDS011;44782;0.000;0.000;2022-08-11T13:16:31;1.95;;;1.85;;
58992;SDS011;44782;0.000;0.000;2022-08-11T13:19:07;2.55;;;2.20;;
58992;SDS011;44782;0.000;0.000;2022-08-11T13:21:24;2.25;;;2.10;;
58992;SDS011;44782;0.000;0.000;2022-08-11T13:23:41;2.10;;;2.00;;
58992;SDS011;44782;0.000;0.000;2022-08-11T13:25:57;2.25;;;2.03;;
58992;SDS011;44782;0.000;0.000;2022-08-11T13:28:13;2.42;;;2.15;;
58992;SDS011;44782;0.000;0.000;2022-08-11T13:30:32;2.95;;;2.00;;
58992;SDS011;44782;0.000;0.000;2022-08-11T13:33:07;2.42;;;2.10;;
58992;SDS011;44782;0.000;0.000;2022-08-11T13:35:24;2.08;;;1.98;;
58992;SDS011;44782;0.000;0.000;2022-08-11T13:37:43;2.20;;;2.10;;
58992;SDS011;44782;0.000;0.000;2022-08-11T13:40:00;2.63;;;2.40;;
58992;SDS011;44782;0.000;0.000;2022-08-11T13:42:16;2.67;;;1.77;;
58992;SDS011;44782;0.000;0.000;2022-08-11T13:44:34;2.08;;;1.98;;
58992;SDS011;44782;0.000;0.000;2022-08-11T13:47:00;1.95;;;1.85;;
58992;SDS011;44782;0.000;0.000;2022-08-11T13:49:18;2.15;;;1.83;;
58992;SDS011;44782;0.000;0.000;2022-08-11T13:51:36;2.03;;;1.83;;
58992;SDS011;44782;0.000;0.000;2022-08-11T13:53:53;2.10;;;2.00;;
58992;SDS011;44782;0.000;0.000;2022-08-11T13:56:10;1.92;;;1.83;;
58992;SDS011;44782;0.000;0.000;2022-08-11T13:58:26;2.40;;;2.00;;
58992;SDS011;44782;0.000;0.000;2022-08-11T14:00:44;2.38;;;2.10;;
58992;SDS011;44782;0.000;0.000;2022-08-11T14:03:05;1.85;;;1.75;;
58992;SDS011;44782;0.000;0.000;2022-08-11T14:05:27;2.08;;;1.98;;
58992;SDS011;44782;0.000;0.000;2022-08-11T14:07:51;4.50;;;1.77;;
58992;SDS011;44782;0.000;0.000;2022-08-11T14:10:11;3.97;;;1.83;;
58992;SDS011;44782;0.000;0.000;2022-08-11T14:12:29;2.08;;;1.77;;
58992;SDS011;44782;0.000;0.000;2022-08-11T14:15:09;1.98;;;1.88;;
58992;SDS011;44782;0.000;0.000;2022-08-11T14:17:39;2.00;;;1.80;;
58992;SDS011;44782;0.000;0.000;2022-08-11T14:19:56;2.10;;;1.90;;
58992;SDS011;44782;0.000;0.000;2022-08-11T14:22:15;2.03;;;1.85;;
58992;SDS011;44782;0.000;0.000;2022-08-11T14:24:37;2.10;;;1.92;;
58992;SDS011;44782;0.000;0.000;2022-08-11T14:27:04;2.80;;;1.70;;
58992;SDS011;44782;0.000;0.000;2022-08-11T14:29:26;3.55;;;1.88;;
58992;SDS011;44782;0.000;0.000;2022-08-11T14:31:44;2.17;;;2.05;;
58992;SDS011;44782;0.000;0.000;2022-08-11T14:34:05;2.17;;;1.98;;
58992;SDS011;44782;0.000;0.000;2022-08-11T14:36:24;1.95;;;1.85;;
58992;SDS011;44782;0.000;0.000;2022-08-11T14:38:42;2.10;;;1.90;;
58992;SDS011;44782;0.000;0.000;2022-08-11T14:40:58;2.00;;;1.88;;
58992;SDS011;44782;0.000;0.000;2022-08-11T14:43:32;2.38;;;2.20;;
58992;SDS011;44782;0.000;0.000;2022-08-11T14:46:06;2.35;;;1.90;;
58992;SDS011;44782;0.000;0.000;2022-08-11T14:48:41;2.33;;;2.10;;
58992;SDS011;44782;0.000;0.000;2022-08-11T14:50:57;2.30;;;2.10;;
58992;SDS011;44782;0.000;0.000;2022-08-11T14:53:13;1.90;;;1.80;;
58992;SDS011;44782;0.000;0.000;2022-08-11T14:55:30;2.05;;;1.90;;
58992;SDS011;44782;0.000;0.000;2022-08-11T14:58:08;2.03;;;1.92;;
58992;SDS011;44782;0.000;0.000;2022-08-11T15:00:25;2.45;;;1.88;;
58992;SDS011;44782;0.000;0.000;2022-08-11T15:02:41;2.20;;;2.10;;
58992;SDS011;44782;0.000;0.000;2022-08-11T15:05:16;2.90;;;1.70;;
58992;SDS011;44782;0.000;0.000;2022-08-11T15:07:34;2.30;;;2.10;;
58992;SDS011;44782;0.000;0.000;2022-08-11T15:09:51;2.13;;;1.85;;
58992;SDS011;44782;0.000;0.000;2022-08-11T15:12:07;2.17;;;1.98;;
58992;SDS011;44782;0.000;0.000;2022-08-11T15:14:23;2.00;;;1.90;;
58992;SDS011;44782;0.000;0.000;2022-08-11T15:16:58;2.10;;;1.80;;
58992;SDS011;44782;0.000;0.000;2022-08-11T15:19:23;2.10;;;1.90;;
58992;SDS011;44782;0.000;0.000;2022-08-11T15:21:39;3.00;;;2.00;;
58992;SDS011;44782;0.000;0.000;2022-08-11T15:24:14;1.85;;;1.75;;
58992;SDS011;44782;0.000;0.000;2022-08-11T15:26:38;2.67;;;2.00;;
58992;SDS011;44782;0.000;0.000;2022-08-11T15:29:14;1.80;;;1.70;;
58992;SDS011;44782;0.000;0.000;2022-08-11T15:31:55;2.40;;;2.20;;
58992;SDS011;44782;0.000;0.000;2022-08-11T15:34:29;2.20;;;2.10;;
58992;SDS011;44782;0.000;0.000;2022-08-11T15:37:07;2.78;;;1.92;;
58992;SDS011;44782;0.000;0.000;2022-08-11T15:42:21;2.40;;;1.77;;
58992;SDS011;44782;0.000;0.000;2022-08-11T15:44:57;2.20;;;1.88;;
58992;SDS011;44782;0.000;0.000;2022-08-11T15:47:36;1.70;;;1.60;;
58992;SDS011;44782;0.000;0.000;2022-08-11T15:49:56;2.00;;;1.90;;
58992;SDS011;44782;0.000;0.000;2022-08-11T15:52:15;2.00;;;1.90;;
58992;SDS011;44782;0.000;0.000;2022-08-11T15:54:33;2.00;;;1.90;;
58992;SDS011;44782;0.000;0.000;2022-08-11T15:56:53;2.30;;;2.10;;
58992;SDS011;44782;0.000;0.000;2022-08-11T15:59:12;1.88;;;1.77;;
58992;SDS011;44782;0.000;0.000;2022-08-11T16:01:48;2.20;;;2.00;;
58992;SDS011;44782;0.000;0.000;2022-08-11T16:04:45;2.00;;;1.90;;
58992;SDS011;44782;0.000;0.000;2022-08-11T16:07:09;2.10;;;1.90;;
58992;SDS011;44782;0.000;0.000;2022-08-11T16:12:02;3.38;;;2.15;;
58992;SDS011;44782;0.000;0.000;2022-08-11T16:14:20;3.17;;;2.10;;
58992;SDS011;44782;0.000;0.000;2022-08-11T16:16:57;2.10;;;1.90;;
58992;SDS011;44782;0.000;0.000;2022-08-11T16:19:14;1.85;;;1.75;;
58992;SDS011;44782;0.000;0.000;2022-08-11T16:21:32;2.17;;;1.98;;
58992;SDS011;44782;0.000;0.000;2022-08-11T16:23:49;1.95;;;1.85;;
58992;SDS011;44782;0.000;0.000;2022-08-11T16:26:08;2.05;;;1.95;;
58992;SDS011;44782;0.000;0.000;2022-08-11T16:28:26;2.78;;;1.92;;
58992;SDS011;44782;0.000;0.000;2022-08-11T16:30:44;2.20;;;2.00;;
58992;SDS011;44782;0.000;0.000;2022-08-11T16:33:03;1.70;;;1.60;;
58992;SDS011;44782;0.000;0.000;2022-08-11T16:35:22;1.90;;;1.80;;
58992;SDS011;44782;0.000;0.000;2022-08-11T16:37:58;2.10;;;1.90;;
58992;SDS011;44782;0.000;0.000;2022-08-11T16:40:33;2.00;;;1.90;;
58992;SDS011;44782;0.000;0.000;2022-08-11T16:42:51;2.20;;;2.00;;
58992;SDS011;44782;0.000;0.000;2022-08-11T16:45:26;2.17;;;1.98;;
58992;SDS011;44782;0.000;0.000;2022-08-11T16:48:00;2.03;;;1.90;;
58992;SDS011;44782;0.000;0.000;2022-08-11T16:50:17;2.00;;;1.90;;
58992;SDS011;44782;0.000;0.000;2022-08-11T16:52:34;2.25;;;1.92;;
58992;SDS011;44782;0.000;0.000;2022-08-11T16:54:51;2.05;;;1.95;;
58992;SDS011;44782;0.000;0.000;2022-08-11T16:59:55;1.90;;;1.80;;
58992;SDS011;44782;0.000;0.000;2022-08-11T17:02:16;2.10;;;2.00;;
58992;SDS011;44782;0.000;0.000;2022-08-11T17:04:52;1.90;;;1.80;;
58992;SDS011;44782;0.000;0.000;2022-08-11T17:07:29;2.22;;;2.10;;
58992;SDS011;44782;0.000;0.000;2022-08-11T17:10:04;2.35;;;1.98;;
58992;SDS011;44782;0.000;0.000;2022-08-11T17:12:44;2.20;;;2.10;;
58992;SDS011;44782;0.000;0.000;2022-08-11T17:15:22;1.92;;;1.83;;
58992;SDS011;44782;0.000;0.000;2022-08-11T17:17:58;1.95;;;1.85;;
58992;SDS011;44782;0.000;0.000;2022-08-11T17:20:14;2.10;;;2.00;;
58992;SDS011;44782;0.000;0.000;2022-08-11T17:22:30;2.00;;;1.90;;
58992;SDS011;44782;0.000;0.000;2022-08-11T17:25:07;2.38;;;1.90;;
58992;SDS011;44782;0.000;0.000;2022-08-11T17:27:23;2.33;;;2.10;;
58992;SDS011;44782;0.000;0.000;2022-08-11T17:29:43;2.15;;;2.03;;
58992;SDS011;44782;0.000;0.000;2022-08-11T17:32:01;2.22;;;2.03;;
58992;SDS011;44782;0.000;0.000;2022-08-11T17:34:37;2.00;;;1.90;;
58992;SDS011;44782;0.000;0.000;2022-08-11T17:37:15;2.05;;;1.95;;
58992;SDS011;44782;0.000;0.000;2022-08-11T17:39:31;3.40;;;2.28;;
58992;SDS011;44782;0.000;0.000;2022-08-11T17:41:49;2.33;;;2.15;;
58992;SDS011;44782;0.000;0.000;2022-08-11T17:44:25;2.20;;;2.10;;
58992;SDS011;44782;0.000;0.000;2022-08-11T17:47:00;2.30;;;2.10;;
58992;SDS011;44782;0.000;0.000;2022-08-11T17:49:35;2.97;;;2.40;;
58992;SDS011;44782;0.000;0.000;2022-08-11T17:51:53;2.40;;;2.17;;
58992;SDS011;44782;0.000;0.000;2022-08-11T17:54:27;2.33;;;2.13;;
58992;SDS011;44782;0.000;0.000;2022-08-11T17:57:04;2.10;;;1.98;;
58992;SDS011;44782;0.000;0.000;2022-08-11T17:59:40;2.47;;;2.28;;
58992;SDS011;44782;0.000;0.000;2022-08-11T18:02:07;3.35;;;2.40;;
58992;SDS011;44782;0.000;0.000;2022-08-11T18:04:56;2.22;;;1.95;;
58992;SDS011;44782;0.000;0.000;2022-08-11T18:07:13;2.20;;;2.10;;
58992;SDS011;44782;0.000;0.000;2022-08-11T18:09:50;2.40;;;2.20;;
58992;SDS011;44782;0.000;0.000;2022-08-11T18:12:24;4.10;;;2.15;;
58992;SDS011;44782;0.000;0.000;2022-08-11T18:14:59;3.58;;;2.15;;
58992;SDS011;44782;0.000;0.000;2022-08-11T18:17:34;2.17;;;2.08;;
58992;SDS011;44782;0.000;0.000;2022-08-11T18:20:09;3.38;;;2.00;;
58992;SDS011;44782;0.000;0.000;2022-08-11T18:22:43;2.10;;;1.90;;
58992;SDS011;44782;0.000;0.000;2022-08-11T18:25:23;3.03;;;2.13;;
58992;SDS011;44782;0.000;0.000;2022-08-11T18:28:00;2.30;;;2.10;;
58992;SDS011;44782;0.000;0.000;2022-08-11T18:30:41;2.85;;;2.40;;
58992;SDS011;44782;0.000;0.000;2022-08-11T18:33:18;2.30;;;2.10;;
58992;SDS011;44782;0.000;0.000;2022-08-11T18:35:57;2.95;;;2.15;;
58992;SDS011;44782;0.000;0.000;2022-08-11T18:38:32;3.65;;;2.30;;
58992;SDS011;44782;0.000;0.000;2022-08-11T18:41:07;3.15;;;2.40;;